sensor_id;sensor_type;location;lat;lon;timestamp;P1;durP1;ratioP1;P2;durP2;ratioP2
51836;SDS011;38941;53.254;6.600;2023-07-22T00:01:32;5.90;;;2.60;;
51836;SDS011;38941;53.254;6.600;2023-07-22T00:03:33;5.55;;;2.80;;
51836;SDS011;38941;53.254;6.600;2023-07-22T00:05:33;5.40;;;2.40;;
51836;SDS011;38941;53.254;6.600;2023-07-22T00:07:34;9.50;;;2.92;;
51836;SDS011;38941;53.254;6.600;2023-07-22T00:09:35;5.10;;;2.67;;
51836;SDS011;38941;53.254;6.600;2023-07-22T00:11:35;6.28;;;3.03;;
51836;SDS011;38941;53.254;6.600;2023-07-22T00:13:36;5.05;;;2.25;;
51836;SDS011;38941;53.254;6.600;2023-07-22T00:15:37;8.23;;;2.63;;
51836;SDS011;38941;53.254;6.600;2023-07-22T00:17:39;8.93;;;3.15;;
51836;SDS011;38941;53.254;6.600;2023-07-22T00:19:40;6.97;;;2.90;;
51836;SDS011;38941;53.254;6.600;2023-07-22T00:21:41;7.38;;;3.00;;
51836;SDS011;38941;53.254;6.600;2023-07-22T00:23:42;9.73;;;2.88;;
51836;SDS011;38941;53.254;6.600;2023-07-22T00:25:42;7.35;;;2.22;;
51836;SDS011;38941;53.254;6.600;2023-07-22T00:27:43;6.60;;;2.80;;
51836;SDS011;38941;53.254;6.600;2023-07-22T00:29:45;6.65;;;2.40;;
51836;SDS011;38941;53.254;6.600;2023-07-22T00:31:45;7.78;;;2.60;;
51836;SDS011;38941;53.254;6.600;2023-07-22T00:33:46;6.13;;;2.42;;
51836;SDS011;38941;53.254;6.600;2023-07-22T00:35:47;6.30;;;2.08;;
51836;SDS011;38941;53.254;6.600;2023-07-22T00:37:50;7.75;;;2.15;;
51836;SDS011;38941;53.254;6.600;2023-07-22T00:39:51;5.72;;;2.13;;
51836;SDS011;38941;53.254;6.600;2023-07-22T00:41:51;4.75;;;2.20;;
51836;SDS011;38941;53.254;6.600;2023-07-22T00:43:52;9.10;;;2.85;;
51836;SDS011;38941;53.254;6.600;2023-07-22T00:45:53;4.57;;;2.40;;
51836;SDS011;38941;53.254;6.600;2023-07-22T00:47:53;6.72;;;2.10;;
51836;SDS011;38941;53.254;6.600;2023-07-22T00:49:54;6.78;;;2.65;;
51836;SDS011;38941;53.254;6.600;2023-07-22T00:51:56;7.93;;;2.30;;
51836;SDS011;38941;53.254;6.600;2023-07-22T00:54:01;6.25;;;2.60;;
51836;SDS011;38941;53.254;6.600;2023-07-22T00:56:05;4.75;;;1.92;;
51836;SDS011;38941;53.254;6.600;2023-07-22T00:58:05;5.50;;;2.05;;
51836;SDS011;38941;53.254;6.600;2023-07-22T01:00:06;3.33;;;1.73;;
51836;SDS011;38941;53.254;6.600;2023-07-22T01:02:07;6.07;;;2.35;;
51836;SDS011;38941;53.254;6.600;2023-07-22T01:04:08;5.93;;;1.70;;
51836;SDS011;38941;53.254;6.600;2023-07-22T01:06:09;3.75;;;1.70;;
51836;SDS011;38941;53.254;6.600;2023-07-22T01:08:10;4.60;;;2.35;;
51836;SDS011;38941;53.254;6.600;2023-07-22T01:10:12;4.80;;;1.70;;
51836;SDS011;38941;53.254;6.600;2023-07-22T01:12:14;4.18;;;1.83;;
51836;SDS011;38941;53.254;6.600;2023-07-22T01:14:16;5.13;;;1.92;;
51836;SDS011;38941;53.254;6.600;2023-07-22T01:16:17;4.20;;;1.67;;
51836;SDS011;38941;53.254;6.600;2023-07-22T01:18:17;4.38;;;1.65;;
51836;SDS011;38941;53.254;6.600;2023-07-22T01:20:18;5.82;;;1.50;;
51836;SDS011;38941;53.254;6.600;2023-07-22T01:22:20;4.10;;;1.67;;
51836;SDS011;38941;53.254;6.600;2023-07-22T01:24:22;5.57;;;1.92;;
51836;SDS011;38941;53.254;6.600;2023-07-22T01:26:23;8.98;;;2.55;;
51836;SDS011;38941;53.254;6.600;2023-07-22T01:28:24;5.57;;;2.13;;
51836;SDS011;38941;53.254;6.600;2023-07-22T01:30:24;5.85;;;1.90;;
51836;SDS011;38941;53.254;6.600;2023-07-22T01:32:27;7.40;;;2.30;;
51836;SDS011;38941;53.254;6.600;2023-07-22T01:34:28;6.30;;;2.50;;
51836;SDS011;38941;53.254;6.600;2023-07-22T01:36:30;9.60;;;4.13;;
51836;SDS011;38941;53.254;6.600;2023-07-22T01:38:30;11.55;;;3.15;;
51836;SDS011;38941;53.254;6.600;2023-07-22T01:40:31;5.63;;;2.85;;
51836;SDS011;38941;53.254;6.600;2023-07-22T01:42:32;7.35;;;2.25;;
51836;SDS011;38941;53.254;6.600;2023-07-22T01:44:32;7.90;;;3.22;;
51836;SDS011;38941;53.254;6.600;2023-07-22T01:46:33;7.90;;;2.45;;
51836;SDS011;38941;53.254;6.600;2023-07-22T01:48:34;7.10;;;2.92;;
51836;SDS011;38941;53.254;6.600;2023-07-22T01:50:35;10.60;;;2.90;;
51836;SDS011;38941;53.254;6.600;2023-07-22T01:52:36;7.70;;;2.70;;
51836;SDS011;38941;53.254;6.600;2023-07-22T01:54:37;9.82;;;3.13;;
51836;SDS011;38941;53.254;6.600;2023-07-22T01:56:38;8.18;;;2.25;;
51836;SDS011;38941;53.254;6.600;2023-07-22T01:58:39;6.20;;;2.42;;
51836;SDS011;38941;53.254;6.600;2023-07-22T02:00:39;7.95;;;2.13;;
51836;SDS011;38941;53.254;6.600;2023-07-22T02:02:41;4.68;;;2.60;;
51836;SDS011;38941;53.254;6.600;2023-07-22T02:04:42;5.40;;;2.30;;
51836;SDS011;38941;53.254;6.600;2023-07-22T02:06:42;8.13;;;3.17;;
51836;SDS011;38941;53.254;6.600;2023-07-22T02:08:44;8.15;;;2.45;;
51836;SDS011;38941;53.254;6.600;2023-07-22T02:10:45;5.43;;;2.47;;
51836;SDS011;38941;53.254;6.600;2023-07-22T02:12:46;9.80;;;2.92;;
51836;SDS011;38941;53.254;6.600;2023-07-22T02:14:47;11.45;;;2.67;;
51836;SDS011;38941;53.254;6.600;2023-07-22T02:16:47;5.50;;;2.58;;
51836;SDS011;38941;53.254;6.600;2023-07-22T02:18:48;5.88;;;2.92;;
51836;SDS011;38941;53.254;6.600;2023-07-22T02:20:49;9.73;;;3.70;;
51836;SDS011;38941;53.254;6.600;2023-07-22T02:22:49;6.35;;;3.10;;
51836;SDS011;38941;53.254;6.600;2023-07-22T02:24:50;7.78;;;2.67;;
51836;SDS011;38941;53.254;6.600;2023-07-22T02:26:51;8.10;;;2.67;;
51836;SDS011;38941;53.254;6.600;2023-07-22T02:28:52;7.63;;;2.53;;
51836;SDS011;38941;53.254;6.600;2023-07-22T02:30:54;10.07;;;2.92;;
51836;SDS011;38941;53.254;6.600;2023-07-22T02:32:56;7.65;;;3.03;;
51836;SDS011;38941;53.254;6.600;2023-07-22T02:34:56;7.90;;;2.45;;
51836;SDS011;38941;53.254;6.600;2023-07-22T02:36:57;6.15;;;3.00;;
51836;SDS011;38941;53.254;6.600;2023-07-22T02:38:59;6.90;;;2.40;;
51836;SDS011;38941;53.254;6.600;2023-07-22T02:41:02;5.65;;;2.88;;
51836;SDS011;38941;53.254;6.600;2023-07-22T02:43:06;5.72;;;2.45;;
51836;SDS011;38941;53.254;6.600;2023-07-22T02:45:07;5.30;;;2.58;;
51836;SDS011;38941;53.254;6.600;2023-07-22T02:47:08;7.15;;;2.72;;
51836;SDS011;38941;53.254;6.600;2023-07-22T02:49:08;6.75;;;2.58;;
51836;SDS011;38941;53.254;6.600;2023-07-22T02:51:10;8.52;;;2.30;;
51836;SDS011;38941;53.254;6.600;2023-07-22T02:53:11;4.57;;;2.22;;
51836;SDS011;38941;53.254;6.600;2023-07-22T02:55:13;5.00;;;1.92;;
51836;SDS011;38941;53.254;6.600;2023-07-22T02:57:15;8.55;;;2.20;;
51836;SDS011;38941;53.254;6.600;2023-07-22T02:59:15;6.25;;;2.10;;
51836;SDS011;38941;53.254;6.600;2023-07-22T03:01:16;6.60;;;2.83;;
51836;SDS011;38941;53.254;6.600;2023-07-22T03:03:16;5.30;;;2.10;;
51836;SDS011;38941;53.254;6.600;2023-07-22T03:05:19;5.65;;;2.28;;
51836;SDS011;38941;53.254;6.600;2023-07-22T03:07:20;7.07;;;2.30;;
51836;SDS011;38941;53.254;6.600;2023-07-22T03:09:20;6.25;;;2.90;;
51836;SDS011;38941;53.254;6.600;2023-07-22T03:11:21;4.45;;;2.38;;
51836;SDS011;38941;53.254;6.600;2023-07-22T03:13:25;8.43;;;2.75;;
51836;SDS011;38941;53.254;6.600;2023-07-22T03:15:29;5.35;;;2.50;;
51836;SDS011;38941;53.254;6.600;2023-07-22T03:17:30;7.25;;;2.92;;
51836;SDS011;38941;53.254;6.600;2023-07-22T03:19:31;5.20;;;1.83;;
51836;SDS011;38941;53.254;6.600;2023-07-22T03:21:31;5.50;;;2.20;;
51836;SDS011;38941;53.254;6.600;2023-07-22T03:23:32;6.25;;;2.53;;
51836;SDS011;38941;53.254;6.600;2023-07-22T03:25:33;6.03;;;2.78;;
51836;SDS011;38941;53.254;6.600;2023-07-22T03:27:34;6.68;;;2.63;;
51836;SDS011;38941;53.254;6.600;2023-07-22T03:29:35;8.45;;;2.38;;
51836;SDS011;38941;53.254;6.600;2023-07-22T03:31:36;8.68;;;2.70;;
51836;SDS011;38941;53.254;6.600;2023-07-22T03:33:37;4.43;;;2.45;;
51836;SDS011;38941;53.254;6.600;2023-07-22T03:35:39;5.03;;;2.50;;
51836;SDS011;38941;53.254;6.600;2023-07-22T03:37:40;6.82;;;2.90;;
51836;SDS011;38941;53.254;6.600;2023-07-22T03:39:40;7.47;;;2.70;;
51836;SDS011;38941;53.254;6.600;2023-07-22T03:41:41;5.97;;;2.47;;
51836;SDS011;38941;53.254;6.600;2023-07-22T03:43:42;6.15;;;2.60;;
51836;SDS011;38941;53.254;6.600;2023-07-22T03:45:43;5.38;;;2.78;;
51836;SDS011;38941;53.254;6.600;2023-07-22T03:47:44;7.32;;;3.08;;
51836;SDS011;38941;53.254;6.600;2023-07-22T03:49:46;6.45;;;2.85;;
51836;SDS011;38941;53.254;6.600;2023-07-22T03:51:47;8.68;;;3.63;;
51836;SDS011;38941;53.254;6.600;2023-07-22T03:53:48;7.40;;;2.65;;
51836;SDS011;38941;53.254;6.600;2023-07-22T03:55:48;10.77;;;3.83;;
51836;SDS011;38941;53.254;6.600;2023-07-22T03:57:49;7.80;;;3.30;;
51836;SDS011;38941;53.254;6.600;2023-07-22T03:59:50;7.35;;;3.15;;
51836;SDS011;38941;53.254;6.600;2023-07-22T04:01:50;8.93;;;2.63;;
51836;SDS011;38941;53.254;6.600;2023-07-22T04:03:51;8.25;;;3.30;;
51836;SDS011;38941;53.254;6.600;2023-07-22T04:05:55;8.77;;;2.85;;
51836;SDS011;38941;53.254;6.600;2023-07-22T04:07:56;5.88;;;2.45;;
51836;SDS011;38941;53.254;6.600;2023-07-22T04:09:57;8.13;;;2.97;;
51836;SDS011;38941;53.254;6.600;2023-07-22T04:11:57;8.55;;;3.42;;
51836;SDS011;38941;53.254;6.600;2023-07-22T04:13:58;14.40;;;2.83;;
51836;SDS011;38941;53.254;6.600;2023-07-22T04:15:59;6.82;;;3.53;;
51836;SDS011;38941;53.254;6.600;2023-07-22T04:17:59;5.70;;;2.78;;
51836;SDS011;38941;53.254;6.600;2023-07-22T04:20:00;6.55;;;2.40;;
51836;SDS011;38941;53.254;6.600;2023-07-22T04:22:02;4.93;;;2.35;;
51836;SDS011;38941;53.254;6.600;2023-07-22T04:24:04;7.20;;;2.53;;
51836;SDS011;38941;53.254;6.600;2023-07-22T04:26:06;5.90;;;2.58;;
51836;SDS011;38941;53.254;6.600;2023-07-22T04:28:09;7.65;;;2.53;;
51836;SDS011;38941;53.254;6.600;2023-07-22T04:30:10;5.70;;;2.60;;
51836;SDS011;38941;53.254;6.600;2023-07-22T04:32:12;8.32;;;2.38;;
51836;SDS011;38941;53.254;6.600;2023-07-22T04:34:13;8.82;;;2.67;;
51836;SDS011;38941;53.254;6.600;2023-07-22T04:36:13;6.30;;;2.75;;
51836;SDS011;38941;53.254;6.600;2023-07-22T04:38:14;4.82;;;1.90;;
51836;SDS011;38941;53.254;6.600;2023-07-22T04:40:15;6.00;;;2.08;;
51836;SDS011;38941;53.254;6.600;2023-07-22T04:42:17;6.90;;;2.10;;
51836;SDS011;38941;53.254;6.600;2023-07-22T04:44:18;7.50;;;2.40;;
51836;SDS011;38941;53.254;6.600;2023-07-22T04:46:19;6.15;;;2.17;;
51836;SDS011;38941;53.254;6.600;2023-07-22T04:48:21;5.03;;;2.40;;
51836;SDS011;38941;53.254;6.600;2023-07-22T04:50:23;6.85;;;1.77;;
51836;SDS011;38941;53.254;6.600;2023-07-22T04:52:24;3.17;;;1.60;;
51836;SDS011;38941;53.254;6.600;2023-07-22T04:54:24;5.38;;;2.15;;
51836;SDS011;38941;53.254;6.600;2023-07-22T04:56:28;6.18;;;1.83;;
51836;SDS011;38941;53.254;6.600;2023-07-22T04:58:28;4.68;;;2.42;;
51836;SDS011;38941;53.254;6.600;2023-07-22T05:00:29;5.35;;;1.85;;
51836;SDS011;38941;53.254;6.600;2023-07-22T05:02:30;4.35;;;1.52;;
51836;SDS011;38941;53.254;6.600;2023-07-22T05:04:32;5.00;;;1.55;;
51836;SDS011;38941;53.254;6.600;2023-07-22T05:06:33;7.90;;;2.25;;
51836;SDS011;38941;53.254;6.600;2023-07-22T05:08:34;4.05;;;2.38;;
51836;SDS011;38941;53.254;6.600;2023-07-22T05:10:39;6.88;;;2.47;;
51836;SDS011;38941;53.254;6.600;2023-07-22T05:12:41;9.82;;;2.17;;
51836;SDS011;38941;53.254;6.600;2023-07-22T05:14:42;4.53;;;2.33;;
51836;SDS011;38941;53.254;6.600;2023-07-22T05:16:43;6.35;;;2.42;;
51836;SDS011;38941;53.254;6.600;2023-07-22T05:18:43;7.70;;;2.40;;
51836;SDS011;38941;53.254;6.600;2023-07-22T05:20:45;9.70;;;3.35;;
51836;SDS011;38941;53.254;6.600;2023-07-22T05:22:45;6.22;;;2.70;;
51836;SDS011;38941;53.254;6.600;2023-07-22T05:24:46;7.43;;;2.70;;
51836;SDS011;38941;53.254;6.600;2023-07-22T05:26:47;7.88;;;3.38;;
51836;SDS011;38941;53.254;6.600;2023-07-22T05:28:48;6.82;;;3.03;;
51836;SDS011;38941;53.254;6.600;2023-07-22T05:30:49;7.50;;;3.28;;
51836;SDS011;38941;53.254;6.600;2023-07-22T05:32:53;7.95;;;3.78;;
51836;SDS011;38941;53.254;6.600;2023-07-22T05:34:54;7.13;;;2.85;;
51836;SDS011;38941;53.254;6.600;2023-07-22T05:36:54;8.05;;;3.13;;
51836;SDS011;38941;53.254;6.600;2023-07-22T05:38:55;6.22;;;3.25;;
51836;SDS011;38941;53.254;6.600;2023-07-22T05:40:57;8.90;;;3.60;;
51836;SDS011;38941;53.254;6.600;2023-07-22T05:42:58;12.00;;;4.10;;
51836;SDS011;38941;53.254;6.600;2023-07-22T05:44:59;8.85;;;3.83;;
51836;SDS011;38941;53.254;6.600;2023-07-22T05:47:02;9.27;;;3.80;;
51836;SDS011;38941;53.254;6.600;2023-07-22T05:49:03;9.43;;;3.42;;
51836;SDS011;38941;53.254;6.600;2023-07-22T05:51:04;6.50;;;2.88;;
51836;SDS011;38941;53.254;6.600;2023-07-22T05:53:05;11.38;;;3.92;;
51836;SDS011;38941;53.254;6.600;2023-07-22T05:55:07;6.15;;;3.25;;
51836;SDS011;38941;53.254;6.600;2023-07-22T05:57:07;9.13;;;3.38;;
51836;SDS011;38941;53.254;6.600;2023-07-22T05:59:08;6.25;;;3.58;;
51836;SDS011;38941;53.254;6.600;2023-07-22T06:01:10;7.80;;;3.15;;
51836;SDS011;38941;53.254;6.600;2023-07-22T06:03:12;7.18;;;3.53;;
51836;SDS011;38941;53.254;6.600;2023-07-22T06:05:13;8.52;;;3.40;;
51836;SDS011;38941;53.254;6.600;2023-07-22T06:07:14;7.32;;;3.42;;
51836;SDS011;38941;53.254;6.600;2023-07-22T06:09:18;7.90;;;3.35;;
51836;SDS011;38941;53.254;6.600;2023-07-22T06:11:20;7.25;;;3.45;;
51836;SDS011;38941;53.254;6.600;2023-07-22T06:13:21;6.22;;;3.20;;
51836;SDS011;38941;53.254;6.600;2023-07-22T06:15:22;8.88;;;3.65;;
51836;SDS011;38941;53.254;6.600;2023-07-22T06:17:23;11.30;;;3.92;;
51836;SDS011;38941;53.254;6.600;2023-07-22T06:19:23;9.13;;;3.63;;
51836;SDS011;38941;53.254;6.600;2023-07-22T06:21:24;8.05;;;3.42;;
51836;SDS011;38941;53.254;6.600;2023-07-22T06:23:25;7.80;;;3.63;;
51836;SDS011;38941;53.254;6.600;2023-07-22T06:25:26;5.82;;;3.28;;
51836;SDS011;38941;53.254;6.600;2023-07-22T06:27:26;8.45;;;4.00;;
51836;SDS011;38941;53.254;6.600;2023-07-22T06:29:27;10.15;;;3.90;;
51836;SDS011;38941;53.254;6.600;2023-07-22T06:31:28;8.77;;;3.67;;
51836;SDS011;38941;53.254;6.600;2023-07-22T06:33:30;6.82;;;3.42;;
51836;SDS011;38941;53.254;6.600;2023-07-22T06:35:31;10.38;;;3.75;;
51836;SDS011;38941;53.254;6.600;2023-07-22T06:37:31;11.50;;;4.22;;
51836;SDS011;38941;53.254;6.600;2023-07-22T06:39:32;7.72;;;3.88;;
51836;SDS011;38941;53.254;6.600;2023-07-22T06:41:33;10.20;;;3.92;;
51836;SDS011;38941;53.254;6.600;2023-07-22T06:43:33;9.65;;;3.83;;
51836;SDS011;38941;53.254;6.600;2023-07-22T06:45:34;9.38;;;4.25;;
51836;SDS011;38941;53.254;6.600;2023-07-22T06:47:35;12.07;;;4.47;;
51836;SDS011;38941;53.254;6.600;2023-07-22T06:49:36;10.10;;;4.47;;
51836;SDS011;38941;53.254;6.600;2023-07-22T06:51:37;10.23;;;3.90;;
51836;SDS011;38941;53.254;6.600;2023-07-22T06:53:38;9.68;;;4.18;;
51836;SDS011;38941;53.254;6.600;2023-07-22T06:55:38;10.95;;;4.80;;
51836;SDS011;38941;53.254;6.600;2023-07-22T06:57:39;9.73;;;4.25;;
51836;SDS011;38941;53.254;6.600;2023-07-22T06:59:40;11.40;;;4.80;;
51836;SDS011;38941;53.254;6.600;2023-07-22T07:01:40;10.98;;;4.03;;
51836;SDS011;38941;53.254;6.600;2023-07-22T07:03:42;11.85;;;4.53;;
51836;SDS011;38941;53.254;6.600;2023-07-22T07:05:43;9.77;;;4.28;;
51836;SDS011;38941;53.254;6.600;2023-07-22T07:07:43;12.90;;;4.93;;
51836;SDS011;38941;53.254;6.600;2023-07-22T07:09:44;10.52;;;4.22;;
51836;SDS011;38941;53.254;6.600;2023-07-22T07:11:45;11.32;;;4.82;;
51836;SDS011;38941;53.254;6.600;2023-07-22T07:13:46;8.35;;;4.22;;
51836;SDS011;38941;53.254;6.600;2023-07-22T07:15:46;10.65;;;4.47;;
51836;SDS011;38941;53.254;6.600;2023-07-22T07:17:50;11.75;;;5.25;;
51836;SDS011;38941;53.254;6.600;2023-07-22T07:19:51;10.63;;;4.53;;
51836;SDS011;38941;53.254;6.600;2023-07-22T07:21:52;9.15;;;4.60;;
51836;SDS011;38941;53.254;6.600;2023-07-22T07:23:53;10.02;;;4.10;;
51836;SDS011;38941;53.254;6.600;2023-07-22T07:25:54;8.90;;;3.95;;
51836;SDS011;38941;53.254;6.600;2023-07-22T07:27:55;11.63;;;4.50;;
51836;SDS011;38941;53.254;6.600;2023-07-22T07:29:55;9.30;;;4.75;;
51836;SDS011;38941;53.254;6.600;2023-07-22T07:31:56;9.85;;;4.32;;
51836;SDS011;38941;53.254;6.600;2023-07-22T07:33:57;9.20;;;4.32;;
51836;SDS011;38941;53.254;6.600;2023-07-22T07:35:58;8.80;;;4.95;;
51836;SDS011;38941;53.254;6.600;2023-07-22T07:37:58;11.75;;;4.68;;
51836;SDS011;38941;53.254;6.600;2023-07-22T07:39:59;9.82;;;4.68;;
51836;SDS011;38941;53.254;6.600;2023-07-22T07:42:00;8.70;;;4.22;;
51836;SDS011;38941;53.254;6.600;2023-07-22T07:44:00;11.48;;;5.05;;
51836;SDS011;38941;53.254;6.600;2023-07-22T07:48:17;12.02;;;5.15;;
51836;SDS011;38941;53.254;6.600;2023-07-22T07:50:18;9.68;;;4.35;;
51836;SDS011;38941;53.254;6.600;2023-07-22T07:52:18;12.48;;;4.45;;
51836;SDS011;38941;53.254;6.600;2023-07-22T07:54:19;9.32;;;4.55;;
51836;SDS011;38941;53.254;6.600;2023-07-22T07:56:20;11.85;;;4.95;;
51836;SDS011;38941;53.254;6.600;2023-07-22T07:58:21;11.45;;;5.45;;
51836;SDS011;38941;53.254;6.600;2023-07-22T08:00:22;9.35;;;4.90;;
51836;SDS011;38941;53.254;6.600;2023-07-22T08:02:23;16.73;;;6.80;;
51836;SDS011;38941;53.254;6.600;2023-07-22T08:04:23;15.05;;;5.28;;
51836;SDS011;38941;53.254;6.600;2023-07-22T08:06:24;8.88;;;4.50;;
51836;SDS011;38941;53.254;6.600;2023-07-22T08:08:25;13.68;;;4.68;;
51836;SDS011;38941;53.254;6.600;2023-07-22T08:10:26;12.35;;;5.80;;
51836;SDS011;38941;53.254;6.600;2023-07-22T08:12:27;12.75;;;5.40;;
51836;SDS011;38941;53.254;6.600;2023-07-22T08:14:28;9.15;;;4.70;;
51836;SDS011;38941;53.254;6.600;2023-07-22T08:16:29;9.13;;;4.57;;
51836;SDS011;38941;53.254;6.600;2023-07-22T08:18:30;10.23;;;4.60;;
51836;SDS011;38941;53.254;6.600;2023-07-22T08:20:32;10.68;;;4.70;;
51836;SDS011;38941;53.254;6.600;2023-07-22T08:22:32;9.55;;;4.18;;
51836;SDS011;38941;53.254;6.600;2023-07-22T08:24:33;11.63;;;4.78;;
51836;SDS011;38941;53.254;6.600;2023-07-22T08:26:33;7.88;;;3.97;;
51836;SDS011;38941;53.254;6.600;2023-07-22T08:28:34;8.55;;;4.07;;
51836;SDS011;38941;53.254;6.600;2023-07-22T08:30:35;7.60;;;4.18;;
51836;SDS011;38941;53.254;6.600;2023-07-22T08:32:37;8.88;;;4.55;;
51836;SDS011;38941;53.254;6.600;2023-07-22T08:34:37;9.85;;;4.00;;
51836;SDS011;38941;53.254;6.600;2023-07-22T08:36:41;8.52;;;3.97;;
51836;SDS011;38941;53.254;6.600;2023-07-22T08:38:43;8.65;;;4.18;;
51836;SDS011;38941;53.254;6.600;2023-07-22T08:40:44;7.35;;;4.15;;
51836;SDS011;38941;53.254;6.600;2023-07-22T08:42:48;7.75;;;3.63;;
51836;SDS011;38941;53.254;6.600;2023-07-22T08:44:50;8.60;;;3.70;;
51836;SDS011;38941;53.254;6.600;2023-07-22T08:46:57;6.97;;;3.95;;
51836;SDS011;38941;53.254;6.600;2023-07-22T08:49:00;7.05;;;4.03;;
51836;SDS011;38941;53.254;6.600;2023-07-22T08:51:04;9.10;;;4.57;;
51836;SDS011;38941;53.254;6.600;2023-07-22T08:53:15;7.63;;;3.55;;
51836;SDS011;38941;53.254;6.600;2023-07-22T08:55:17;7.57;;;3.50;;
51836;SDS011;38941;53.254;6.600;2023-07-22T08:57:18;8.98;;;3.38;;
51836;SDS011;38941;53.254;6.600;2023-07-22T08:59:19;9.50;;;4.97;;
51836;SDS011;38941;53.254;6.600;2023-07-22T09:01:21;8.35;;;3.72;;
51836;SDS011;38941;53.254;6.600;2023-07-22T09:03:23;6.57;;;3.40;;
51836;SDS011;38941;53.254;6.600;2023-07-22T09:05:25;7.15;;;3.60;;
51836;SDS011;38941;53.254;6.600;2023-07-22T09:07:26;9.13;;;3.35;;
51836;SDS011;38941;53.254;6.600;2023-07-22T09:09:27;5.68;;;2.90;;
51836;SDS011;38941;53.254;6.600;2023-07-22T09:11:28;5.25;;;2.78;;
51836;SDS011;38941;53.254;6.600;2023-07-22T09:13:29;3.58;;;2.10;;
51836;SDS011;38941;53.254;6.600;2023-07-22T09:15:32;4.97;;;2.65;;
51836;SDS011;38941;53.254;6.600;2023-07-22T09:17:36;7.10;;;2.95;;
51836;SDS011;38941;53.254;6.600;2023-07-22T09:19:41;5.97;;;2.90;;
51836;SDS011;38941;53.254;6.600;2023-07-22T09:21:41;8.13;;;2.58;;
51836;SDS011;38941;53.254;6.600;2023-07-22T09:23:42;3.92;;;2.50;;
51836;SDS011;38941;53.254;6.600;2023-07-22T09:25:43;5.57;;;2.78;;
51836;SDS011;38941;53.254;6.600;2023-07-22T09:27:54;4.88;;;2.55;;
51836;SDS011;38941;53.254;6.600;2023-07-22T09:29:57;4.35;;;2.45;;
51836;SDS011;38941;53.254;6.600;2023-07-22T09:31:58;3.80;;;2.30;;
51836;SDS011;38941;53.254;6.600;2023-07-22T09:34:09;5.90;;;2.35;;
51836;SDS011;38941;53.254;6.600;2023-07-22T09:36:10;3.92;;;2.40;;
51836;SDS011;38941;53.254;6.600;2023-07-22T09:38:11;8.25;;;3.05;;
51836;SDS011;38941;53.254;6.600;2023-07-22T09:40:19;6.30;;;2.45;;
51836;SDS011;38941;53.254;6.600;2023-07-22T09:42:24;7.35;;;3.05;;
51836;SDS011;38941;53.254;6.600;2023-07-22T09:44:29;7.60;;;2.80;;
51836;SDS011;38941;53.254;6.600;2023-07-22T09:46:32;8.15;;;3.50;;
51836;SDS011;38941;53.254;6.600;2023-07-22T09:48:43;6.97;;;3.33;;
51836;SDS011;38941;53.254;6.600;2023-07-22T09:50:45;6.65;;;3.38;;
51836;SDS011;38941;53.254;6.600;2023-07-22T09:52:52;6.78;;;3.53;;
51836;SDS011;38941;53.254;6.600;2023-07-22T09:54:54;8.05;;;3.97;;
51836;SDS011;38941;53.254;6.600;2023-07-22T09:56:56;7.57;;;3.55;;
51836;SDS011;38941;53.254;6.600;2023-07-22T09:58:59;6.88;;;3.88;;
51836;SDS011;38941;53.254;6.600;2023-07-22T10:01:05;7.25;;;3.78;;
51836;SDS011;38941;53.254;6.600;2023-07-22T10:03:09;11.05;;;4.57;;
51836;SDS011;38941;53.254;6.600;2023-07-22T10:05:12;9.10;;;4.80;;
51836;SDS011;38941;53.254;6.600;2023-07-22T10:07:15;7.72;;;3.97;;
51836;SDS011;38941;53.254;6.600;2023-07-22T10:09:16;10.32;;;4.40;;
51836;SDS011;38941;53.254;6.600;2023-07-22T10:11:18;8.07;;;4.45;;
51836;SDS011;38941;53.254;6.600;2023-07-22T10:13:19;6.72;;;3.85;;
51836;SDS011;38941;53.254;6.600;2023-07-22T10:15:20;7.53;;;3.88;;
51836;SDS011;38941;53.254;6.600;2023-07-22T10:17:21;8.80;;;4.28;;
51836;SDS011;38941;53.254;6.600;2023-07-22T10:19:22;6.32;;;3.60;;
51836;SDS011;38941;53.254;6.600;2023-07-22T10:21:25;9.20;;;3.63;;
51836;SDS011;38941;53.254;6.600;2023-07-22T10:23:28;11.15;;;4.32;;
51836;SDS011;38941;53.254;6.600;2023-07-22T10:25:31;8.23;;;4.05;;
51836;SDS011;38941;53.254;6.600;2023-07-22T10:27:32;7.03;;;3.40;;
51836;SDS011;38941;53.254;6.600;2023-07-22T10:29:34;5.82;;;3.30;;
51836;SDS011;38941;53.254;6.600;2023-07-22T10:31:35;9.30;;;3.70;;
51836;SDS011;38941;53.254;6.600;2023-07-22T10:33:36;9.65;;;3.97;;
51836;SDS011;38941;53.254;6.600;2023-07-22T10:35:40;6.70;;;3.13;;
51836;SDS011;38941;53.254;6.600;2023-07-22T10:37:47;7.70;;;3.95;;
51836;SDS011;38941;53.254;6.600;2023-07-22T10:39:48;8.93;;;4.40;;
51836;SDS011;38941;53.254;6.600;2023-07-22T10:41:49;7.38;;;3.75;;
51836;SDS011;38941;53.254;6.600;2023-07-22T10:43:54;6.60;;;3.80;;
51836;SDS011;38941;53.254;6.600;2023-07-22T10:45:56;8.23;;;3.90;;
51836;SDS011;38941;53.254;6.600;2023-07-22T10:48:05;7.25;;;3.67;;
51836;SDS011;38941;53.254;6.600;2023-07-22T10:50:07;6.28;;;3.50;;
51836;SDS011;38941;53.254;6.600;2023-07-22T10:52:10;8.07;;;3.35;;
51836;SDS011;38941;53.254;6.600;2023-07-22T10:54:13;8.65;;;4.35;;
51836;SDS011;38941;53.254;6.600;2023-07-22T10:56:17;6.65;;;3.63;;
51836;SDS011;38941;53.254;6.600;2023-07-22T10:58:19;6.22;;;3.53;;
51836;SDS011;38941;53.254;6.600;2023-07-22T11:00:20;8.52;;;4.05;;
51836;SDS011;38941;53.254;6.600;2023-07-22T11:02:25;7.18;;;3.58;;
51836;SDS011;38941;53.254;6.600;2023-07-22T11:04:27;10.50;;;3.85;;
51836;SDS011;38941;53.254;6.600;2023-07-22T11:06:31;10.57;;;4.78;;
51836;SDS011;38941;53.254;6.600;2023-07-22T11:08:35;16.05;;;4.88;;
51836;SDS011;38941;53.254;6.600;2023-07-22T11:10:37;5.78;;;3.63;;
51836;SDS011;38941;53.254;6.600;2023-07-22T11:12:53;8.75;;;3.90;;
51836;SDS011;38941;53.254;6.600;2023-07-22T11:15:03;7.22;;;3.50;;
51836;SDS011;38941;53.254;6.600;2023-07-22T11:17:06;8.75;;;3.50;;
51836;SDS011;38941;53.254;6.600;2023-07-22T11:19:12;7.32;;;3.60;;
51836;SDS011;38941;53.254;6.600;2023-07-22T11:21:14;6.85;;;3.17;;
51836;SDS011;38941;53.254;6.600;2023-07-22T11:23:15;6.20;;;3.33;;
51836;SDS011;38941;53.254;6.600;2023-07-22T11:25:18;6.30;;;3.78;;
51836;SDS011;38941;53.254;6.600;2023-07-22T11:27:19;5.50;;;3.17;;
51836;SDS011;38941;53.254;6.600;2023-07-22T11:29:20;4.57;;;2.70;;
51836;SDS011;38941;53.254;6.600;2023-07-22T11:31:21;5.82;;;2.90;;
51836;SDS011;38941;53.254;6.600;2023-07-22T11:33:21;5.75;;;3.25;;
51836;SDS011;38941;53.254;6.600;2023-07-22T11:35:22;4.70;;;2.80;;
51836;SDS011;38941;53.254;6.600;2023-07-22T11:37:23;6.68;;;3.17;;
51836;SDS011;38941;53.254;6.600;2023-07-22T11:39:25;6.30;;;3.25;;
51836;SDS011;38941;53.254;6.600;2023-07-22T11:41:26;9.57;;;3.95;;
51836;SDS011;38941;53.254;6.600;2023-07-22T11:43:27;4.53;;;3.20;;
51836;SDS011;38941;53.254;6.600;2023-07-22T11:45:28;5.43;;;2.90;;
51836;SDS011;38941;53.254;6.600;2023-07-22T11:47:29;5.47;;;2.70;;
51836;SDS011;38941;53.254;6.600;2023-07-22T11:49:32;6.57;;;3.33;;
51836;SDS011;38941;53.254;6.600;2023-07-22T11:51:36;5.25;;;3.13;;
51836;SDS011;38941;53.254;6.600;2023-07-22T11:53:42;6.43;;;3.38;;
51836;SDS011;38941;53.254;6.600;2023-07-22T11:55:46;6.38;;;3.35;;
51836;SDS011;38941;53.254;6.600;2023-07-22T11:57:51;10.20;;;3.65;;
51836;SDS011;38941;53.254;6.600;2023-07-22T11:59:55;7.18;;;4.05;;
51836;SDS011;38941;53.254;6.600;2023-07-22T12:01:57;5.22;;;2.92;;
51836;SDS011;38941;53.254;6.600;2023-07-22T12:04:00;6.78;;;3.58;;
51836;SDS011;38941;53.254;6.600;2023-07-22T12:06:02;6.18;;;3.60;;
51836;SDS011;38941;53.254;6.600;2023-07-22T12:08:03;9.77;;;4.80;;
51836;SDS011;38941;53.254;6.600;2023-07-22T12:10:05;6.65;;;3.78;;
51836;SDS011;38941;53.254;6.600;2023-07-22T12:12:07;11.70;;;5.20;;
51836;SDS011;38941;53.254;6.600;2023-07-22T12:14:10;8.77;;;4.22;;